createdAt,value
2023-04-26T00:00:11.347Z,95.9016
2023-04-26T00:01:12.042Z,96.0486
2023-04-26T00:02:12.797Z,96.3188
2023-04-26T00:03:13.628Z,96.1508
2023-04-26T00:04:14.817Z,95.9976
2023-04-26T00:05:15.742Z,95.8591
2023-04-26T00:06:16.455Z,96.1630
2023-04-26T00:07:17.138Z,96.2226
2023-04-26T00:08:17.776Z,95.9715
2023-04-26T00:09:18.505Z,95.9095
2023-04-26T00:10:19.171Z,95.7922
2023-04-26T00:11:19.835Z,96.0308
2023-04-26T00:12:20.542Z,96.1275
2023-04-26T00:13:21.260Z,96.2850
2023-04-26T00:14:21.900Z,96.3328
2023-04-26T00:15:22.584Z,96.2448
2023-04-26T00:16:23.255Z,96.3837
2023-04-26T00:17:23.896Z,96.4519
2023-04-26T00:18:24.516Z,96.4720
2023-04-26T00:19:25.159Z,96.4068
2023-04-26T00:20:25.787Z,96.3343
2023-04-26T00:21:26.439Z,96.5489
2023-04-26T00:22:27.052Z,96.6199
2023-04-26T00:23:27.730Z,96.6715
2023-04-26T00:24:28.468Z,96.8043
2023-04-26T00:25:29.130Z,96.6531
2023-04-26T00:26:29.773Z,96.5295
2023-04-26T00:27:30.430Z,96.4992
2023-04-26T00:28:31.045Z,96.3586
2023-04-26T00:29:31.748Z,96.3758
2023-04-26T00:30:32.445Z,96.2072
2023-04-26T00:31:33.107Z,96.3708
2023-04-26T00:32:33.751Z,96.2221
2023-04-26T00:33:34.475Z,96.1109
2023-04-26T00:34:35.167Z,96.0820
2023-04-26T00:35:35.834Z,96.1636
2023-04-26T00:36:36.608Z,96.2803
2023-04-26T00:37:37.336Z,96.3634
2023-04-26T00:38:37.960Z,96.5888
2023-04-26T00:39:38.700Z,96.6207
2023-04-26T00:40:39.374Z,96.6346
2023-04-26T00:41:40.084Z,96.5418
2023-04-26T00:42:40.741Z,96.5191
2023-04-26T00:43:41.426Z,96.1576
2023-04-26T00:44:42.110Z,95.9251
2023-04-26T00:45:42.839Z,95.7806
2023-04-26T00:46:43.471Z,95.9173
2023-04-26T00:47:44.162Z,95.8330
2023-04-26T00:48:44.790Z,95.4928
2023-04-26T00:49:45.483Z,95.7497
2023-04-26T00:50:46.159Z,95.6797
2023-04-26T00:51:46.829Z,96.1923
2023-04-26T00:52:47.558Z,96.1564
2023-04-26T00:53:48.210Z,96.0017
2023-04-26T00:54:48.939Z,96.0292
2023-04-26T00:55:49.661Z,95.7854
2023-04-26T00:56:50.348Z,95.7871
2023-04-26T00:57:51.000Z,95.3012
2023-04-26T00:58:51.870Z,95.3878
2023-04-26T00:59:52.828Z,95.3376
2023-04-26T01:00:53.811Z,94.8986
2023-04-26T01:01:54.530Z,95.1461
2023-04-26T01:02:55.314Z,95.3607
2023-04-26T01:03:56.131Z,95.3275
2023-04-26T01:04:57.037Z,95.3004
2023-04-26T01:05:57.688Z,95.4636
2023-04-26T01:06:58.390Z,95.4274
2023-04-26T01:07:59.102Z,95.0403
2023-04-26T01:08:59.773Z,95.1392
2023-04-26T01:10:00.464Z,95.2562
2023-04-26T01:11:01.157Z,95.0461
2023-04-26T01:12:01.867Z,94.9109
2023-04-26T01:13:02.582Z,95.1931
2023-04-26T01:14:03.257Z,95.2052
2023-04-26T01:15:03.978Z,95.1085
2023-04-26T01:16:04.694Z,95.2617
2023-04-26T01:17:05.340Z,95.4143
2023-04-26T01:18:06.093Z,95.3896
2023-04-26T01:19:06.735Z,95.3549
2023-04-26T01:20:07.422Z,95.3399
2023-04-26T01:21:08.126Z,95.5428
2023-04-26T01:22:08.873Z,95.7316
2023-04-26T01:23:09.535Z,96.1400
2023-04-26T01:24:10.209Z,95.9872
2023-04-26T01:25:10.898Z,96.3649
2023-04-26T01:26:11.595Z,96.4471
2023-04-26T01:27:12.230Z,96.4708
2023-04-26T01:28:12.878Z,96.4657
2023-04-26T01:29:13.598Z,96.4911
2023-04-26T01:30:14.361Z,96.3896
2023-04-26T01:31:15.030Z,96.4720
2023-04-26T01:32:15.734Z,96.7414
2023-04-26T01:33:16.472Z,96.8601
2023-04-26T01:34:17.192Z,96.8666
2023-04-26T01:35:17.916Z,96.7365
2023-04-26T01:36:18.565Z,96.7268
2023-04-26T01:37:19.231Z,96.5185
2023-04-26T01:38:19.963Z,96.5615
2023-04-26T01:39:20.603Z,96.6209
2023-04-26T01:40:21.358Z,96.5109
2023-04-26T01:41:21.984Z,96.5708
2023-04-26T01:42:22.689Z,96.3475
2023-04-26T01:43:23.388Z,96.2443
2023-04-26T01:44:24.053Z,96.2097
2023-04-26T01:45:24.739Z,96.2449
2023-04-26T01:46:25.442Z,96.1460
2023-04-26T01:47:26.121Z,95.9387
2023-04-26T01:48:26.784Z,95.9884
2023-04-26T01:49:27.455Z,96.0628
2023-04-26T01:50:28.122Z,96.0508
2023-04-26T01:51:28.962Z,96.2022
2023-04-26T01:52:29.784Z,95.9455
2023-04-26T01:53:30.531Z,96.0287
2023-04-26T01:54:31.189Z,96.0845
2023-04-26T01:55:31.855Z,96.2377
2023-04-26T01:56:32.666Z,96.1567
2023-04-26T01:57:33.407Z,96.1653
2023-04-26T01:58:34.100Z,96.1703
2023-04-26T01:59:34.737Z,96.4304
2023-04-26T02:00:35.454Z,96.1463
2023-04-26T02:01:36.118Z,96.0046
2023-04-26T02:02:36.945Z,95.9865
2023-04-26T02:03:37.844Z,96.2328
2023-04-26T02:04:38.565Z,96.1567
2023-04-26T02:05:39.194Z,96.1814
2023-04-26T02:06:39.896Z,96.3174
2023-04-26T02:07:40.609Z,96.2233
2023-04-26T02:08:41.247Z,96.3199
2023-04-26T02:09:41.943Z,96.3232
2023-04-26T02:10:42.659Z,96.4372
2023-04-26T02:11:43.358Z,96.5020
2023-04-26T02:12:44.066Z,96.6651
2023-04-26T02:13:44.711Z,96.6998
2023-04-26T02:14:45.361Z,96.9271
2023-04-26T02:15:46.127Z,96.9205
2023-04-26T02:16:46.881Z,96.7999
2023-04-26T02:17:47.547Z,96.8048
2023-04-26T02:18:48.289Z,96.6151
2023-04-26T02:19:48.939Z,96.4247
2023-04-26T02:20:49.650Z,96.5662
2023-04-26T02:21:50.337Z,96.6837
2023-04-26T02:22:50.998Z,96.6462
2023-04-26T02:23:51.629Z,96.6000
2023-04-26T02:24:52.319Z,96.6211
2023-04-26T02:25:52.987Z,96.7306
2023-04-26T02:26:53.682Z,96.5644
2023-04-26T02:27:54.357Z,96.6540
2023-04-26T02:28:55.159Z,96.6579
2023-04-26T02:29:55.846Z,96.5336
2023-04-26T02:30:56.556Z,96.3356
2023-04-26T02:31:57.377Z,96.3505
2023-04-26T02:32:58.092Z,96.4392
2023-04-26T02:33:58.778Z,96.4673
2023-04-26T02:34:59.527Z,96.5983
2023-04-26T02:36:00.186Z,96.7012
2023-04-26T02:37:00.912Z,96.9315
2023-04-26T02:38:01.632Z,97.0536
2023-04-26T02:39:02.325Z,97.1099
2023-04-26T02:40:03.054Z,97.1665
2023-04-26T02:41:03.940Z,97.2028
2023-04-26T02:42:04.708Z,97.2573
2023-04-26T02:43:05.385Z,97.1478
2023-04-26T02:44:06.091Z,97.0593
2023-04-26T02:45:06.854Z,97.2208
2023-04-26T02:46:07.563Z,97.3283
2023-04-26T02:47:08.321Z,97.3148
2023-04-26T02:48:09.083Z,97.3130
2023-04-26T02:49:09.750Z,97.3118
2023-04-26T02:50:10.420Z,97.2104
2023-04-26T02:51:11.104Z,97.3042
2023-04-26T02:52:11.814Z,97.2524
2023-04-26T02:53:12.514Z,97.1466
2023-04-26T02:54:13.252Z,97.2430
2023-04-26T02:55:13.928Z,97.3320
2023-04-26T02:56:14.620Z,97.1292
2023-04-26T02:57:15.287Z,97.2308
2023-04-26T02:58:16.000Z,97.2824
2023-04-26T02:59:16.673Z,97.3770
2023-04-26T03:00:17.399Z,97.4286
2023-04-26T03:01:18.159Z,97.2892
2023-04-26T03:02:18.970Z,97.3726
2023-04-26T03:03:19.910Z,97.5212
2023-04-26T03:04:21.030Z,97.4488
2023-04-26T03:05:21.705Z,97.4902
2023-04-26T03:06:22.428Z,97.5632
2023-04-26T03:07:23.138Z,97.4671
2023-04-26T03:08:23.988Z,97.4365
2023-04-26T03:09:24.606Z,97.4818
2023-04-26T03:10:25.285Z,97.3830
2023-04-26T03:11:26.011Z,97.3753
2023-04-26T03:12:26.123Z,97.3433
2023-04-26T03:13:26.852Z,97.4755
2023-04-26T03:14:27.528Z,97.5179
2023-04-26T03:15:28.216Z,97.5049
2023-04-26T03:16:28.969Z,97.4587
2023-04-26T03:17:29.625Z,97.4476
2023-04-26T03:18:30.363Z,97.4921
2023-04-26T03:19:31.020Z,97.5513
2023-04-26T03:20:31.685Z,97.4873
2023-04-26T03:21:32.357Z,97.3811
2023-04-26T03:22:33.036Z,97.3129
2023-04-26T03:23:33.760Z,97.1681
2023-04-26T03:24:34.448Z,97.1009
2023-04-26T03:25:35.154Z,97.1979
2023-04-26T03:26:35.838Z,97.1802
2023-04-26T03:27:36.506Z,97.1231
2023-04-26T03:28:37.203Z,97.0890
2023-04-26T03:29:37.920Z,97.0352
2023-04-26T03:30:38.621Z,97.0807
2023-04-26T03:31:39.461Z,97.0173
2023-04-26T03:32:40.185Z,96.9538
2023-04-26T03:33:40.787Z,96.9751
2023-04-26T03:34:41.490Z,97.0487
2023-04-26T03:35:42.192Z,96.9954
2023-04-26T03:36:42.927Z,97.0024
2023-04-26T03:37:43.575Z,97.0574
2023-04-26T03:38:44.247Z,97.0539
2023-04-26T03:39:44.952Z,97.1091
2023-04-26T03:40:45.684Z,96.8842
2023-04-26T03:41:46.367Z,96.9476
2023-04-26T03:42:47.122Z,96.8829
2023-04-26T03:43:47.767Z,96.9338
2023-04-26T03:44:48.466Z,97.0099
2023-04-26T03:45:49.148Z,97.0798
2023-04-26T03:46:49.902Z,97.0219
2023-04-26T03:47:50.693Z,97.0129
2023-04-26T03:48:51.703Z,97.0130
2023-04-26T03:49:52.808Z,97.1063
2023-04-26T03:50:53.505Z,97.1602
2023-04-26T03:51:54.181Z,97.2213
2023-04-26T03:52:54.882Z,97.2055
2023-04-26T03:53:55.593Z,97.2105
2023-04-26T03:54:56.264Z,97.0471
2023-04-26T03:55:56.936Z,97.0863
2023-04-26T03:56:57.619Z,97.2062
2023-04-26T03:57:58.534Z,97.3060
2023-04-26T03:58:59.173Z,97.4194
2023-04-26T03:59:59.934Z,97.4739
2023-04-26T04:01:00.571Z,97.4881
2023-04-26T04:02:01.267Z,97.5021
2023-04-26T04:03:02.016Z,97.5547
2023-04-26T04:04:02.935Z,97.6743
2023-04-26T04:05:03.853Z,97.7625
2023-04-26T04:06:04.620Z,97.8374
2023-04-26T04:07:05.308Z,97.8283
2023-04-26T04:08:06.017Z,97.9742
2023-04-26T04:09:06.728Z,98.0344
2023-04-26T04:10:07.401Z,98.1465
2023-04-26T04:11:08.137Z,98.1582
2023-04-26T04:12:08.834Z,98.1413
2023-04-26T04:13:09.547Z,98.2391
2023-04-26T04:14:10.302Z,98.2214
2023-04-26T04:15:10.998Z,98.1935
2023-04-26T04:16:11.756Z,98.0820
2023-04-26T04:17:12.428Z,98.0144
2023-04-26T04:18:13.177Z,98.0709
2023-04-26T04:19:13.888Z,98.1861
2023-04-26T04:20:14.622Z,98.0550
2023-04-26T04:21:15.347Z,98.0593
2023-04-26T04:22:16.071Z,98.0405
2023-04-26T04:23:16.787Z,97.9426
2023-04-26T04:24:17.429Z,98.0830
2023-04-26T04:25:18.108Z,98.1279
2023-04-26T04:26:18.754Z,98.0337
2023-04-26T04:27:19.523Z,97.9916
2023-04-26T04:28:20.174Z,97.9791
2023-04-26T04:29:20.875Z,97.9733
2023-04-26T04:30:21.584Z,97.9368
2023-04-26T04:31:22.363Z,98.0379
2023-04-26T04:32:23.181Z,98.1188
2023-04-26T04:33:23.878Z,98.0064
2023-04-26T04:34:24.575Z,97.9832
2023-04-26T04:35:25.251Z,97.6416
2023-04-26T04:36:25.924Z,97.5935
2023-04-26T04:37:26.615Z,97.4652
2023-04-26T04:38:27.315Z,97.3440
2023-04-26T04:39:27.953Z,97.2851
2023-04-26T04:40:28.663Z,97.3401
2023-04-26T04:41:29.404Z,97.4212
2023-04-26T04:42:30.087Z,97.4889
2023-04-26T04:43:31.087Z,97.4907
2023-04-26T04:44:31.885Z,97.5700
2023-04-26T04:45:32.574Z,97.5513
2023-04-26T04:46:33.312Z,97.5168
2023-04-26T04:47:34.247Z,97.4766
2023-04-26T04:48:34.995Z,97.4034
2023-04-26T04:49:35.710Z,97.3051
2023-04-26T04:50:36.394Z,97.0698
2023-04-26T04:51:37.122Z,96.8496
2023-04-26T04:52:37.923Z,96.5487
2023-04-26T04:53:38.638Z,96.3082
2023-04-26T04:54:39.250Z,96.2775
2023-04-26T04:55:39.980Z,96.3152
2023-04-26T04:56:40.622Z,96.2701
2023-04-26T04:57:43.117Z,96.4329
2023-04-26T04:58:43.948Z,96.5903
2023-04-26T04:59:44.737Z,96.6396
2023-04-26T05:00:45.412Z,96.5399
2023-04-26T05:01:46.134Z,96.4753
2023-04-26T05:02:46.951Z,96.4211
2023-04-26T05:03:47.776Z,96.4186
2023-04-26T05:04:48.541Z,96.4918
2023-04-26T05:05:49.294Z,96.3798
2023-04-26T05:06:50.039Z,96.2071
2023-04-26T05:07:50.900Z,96.0400
2023-04-26T05:08:51.628Z,95.9364
2023-04-26T05:09:52.325Z,96.1775
2023-04-26T05:10:52.958Z,96.2390
2023-04-26T05:11:53.620Z,96.1393
2023-04-26T05:12:54.340Z,96.2561
2023-04-26T05:13:55.592Z,96.4295
2023-04-26T05:14:56.699Z,96.2058
2023-04-26T05:15:57.503Z,95.8127
2023-04-26T05:16:58.205Z,95.6977
2023-04-26T05:17:58.966Z,95.6422
2023-04-26T05:18:59.670Z,95.5728
2023-04-26T05:20:00.494Z,95.4737
2023-04-26T05:21:01.201Z,95.4410
2023-04-26T05:22:01.907Z,95.5979
2023-04-26T05:23:02.626Z,95.5338
2023-04-26T05:24:03.363Z,95.5270
2023-04-26T05:25:04.064Z,95.4889
2023-04-26T05:26:04.747Z,95.4768
2023-04-26T05:27:05.443Z,95.5987
2023-04-26T05:28:06.144Z,95.4185
2023-04-26T05:29:06.811Z,95.3216
2023-04-26T05:30:07.454Z,95.3684
2023-04-26T05:31:10.632Z,95.4321
2023-04-26T05:32:09.354Z,95.4611
2023-04-26T05:33:10.073Z,95.3937
2023-04-26T05:34:10.743Z,95.3984
2023-04-26T05:35:11.397Z,95.2786
2023-04-26T05:36:12.083Z,95.2356
2023-04-26T05:37:12.742Z,95.4304
2023-04-26T05:38:13.485Z,95.3245
2023-04-26T05:39:14.157Z,95.4387
2023-04-26T05:40:14.837Z,95.3251
2023-04-26T05:41:15.570Z,95.2160
2023-04-26T05:42:17.855Z,95.2581
2023-04-26T05:43:19.136Z,94.9775
2023-04-26T05:44:19.928Z,94.7809
2023-04-26T05:45:20.626Z,94.7869
2023-04-26T05:46:21.607Z,94.7404
2023-04-26T05:47:22.613Z,94.6745
2023-04-26T05:48:23.331Z,94.5915
2023-04-26T05:49:24.017Z,94.5661
2023-04-26T05:50:24.749Z,94.7528
2023-04-26T05:51:25.456Z,94.5741
2023-04-26T05:52:26.179Z,94.4183
2023-04-26T05:53:26.923Z,94.2990
2023-04-26T05:54:27.628Z,94.7055
2023-04-26T05:55:28.367Z,94.7661
2023-04-26T05:56:29.121Z,94.2754
2023-04-26T05:57:29.943Z,94.4250
2023-04-26T05:58:30.662Z,93.8014
2023-04-26T05:59:31.376Z,93.6989
2023-04-26T06:00:32.108Z,94.1231
2023-04-26T06:01:32.873Z,94.2766
2023-04-26T06:02:33.876Z,93.7146
2023-04-26T06:03:35.151Z,93.7439
2023-04-26T06:04:36.191Z,93.7091
2023-04-26T06:05:36.944Z,94.0490
2023-04-26T06:06:37.785Z,94.6788
2023-04-26T06:07:38.499Z,94.6249
2023-04-26T06:08:39.229Z,94.6627
2023-04-26T06:09:39.935Z,94.7270
2023-04-26T06:10:40.673Z,94.3107
2023-04-26T06:11:41.321Z,93.6958
2023-04-26T06:12:42.056Z,93.4744
2023-04-26T06:13:43.126Z,93.5555
2023-04-26T06:14:43.946Z,93.3106
2023-04-26T06:15:44.605Z,93.2851
2023-04-26T06:16:45.428Z,93.0258
2023-04-26T06:17:46.132Z,93.1070
2023-04-26T06:18:46.902Z,93.4576
2023-04-26T06:19:47.698Z,93.5472
2023-04-26T06:20:48.440Z,93.3083
2023-04-26T06:21:49.169Z,92.4003
2023-04-26T06:22:49.939Z,92.1941
2023-04-26T06:23:50.942Z,92.1414
2023-04-26T06:24:52.004Z,92.2089
2023-04-26T06:25:52.669Z,93.0107
2023-04-26T06:26:53.414Z,93.0917
2023-04-26T06:27:54.163Z,93.3346
2023-04-26T06:28:54.890Z,93.5106
2023-04-26T06:29:55.605Z,93.4264
2023-04-26T06:30:56.450Z,92.8407
2023-04-26T06:31:57.173Z,92.9826
2023-04-26T06:32:58.032Z,91.8542
2023-04-26T06:33:58.779Z,91.3683
2023-04-26T06:34:59.509Z,91.3403
2023-04-26T06:36:00.223Z,91.7136
2023-04-26T06:37:00.994Z,92.2360
2023-04-26T06:38:01.689Z,92.0718
2023-04-26T06:39:02.419Z,91.6965
2023-04-26T06:40:03.124Z,92.2642
2023-04-26T06:41:03.863Z,92.0301
2023-04-26T06:42:04.633Z,91.1315
2023-04-26T06:43:05.370Z,91.7664
2023-04-26T06:44:06.126Z,92.4173
2023-04-26T06:45:06.881Z,92.0705
2023-04-26T06:46:07.602Z,91.8613
2023-04-26T06:47:08.311Z,91.2276
2023-04-26T06:48:09.098Z,91.4518
2023-04-26T06:49:09.870Z,91.2293
2023-04-26T06:50:10.614Z,91.1556
2023-04-26T06:51:11.390Z,91.3456
2023-04-26T06:52:12.215Z,91.6977
2023-04-26T06:53:12.922Z,92.0802
2023-04-26T06:54:13.708Z,91.7834
2023-04-26T06:55:14.442Z,90.5335
2023-04-26T06:56:15.133Z,90.3094
2023-04-26T06:57:15.874Z,89.8729
2023-04-26T06:58:16.824Z,89.9676
2023-04-26T06:59:17.572Z,89.8953
2023-04-26T07:00:18.317Z,89.8495
2023-04-26T07:01:19.069Z,90.7607
2023-04-26T07:02:20.068Z,90.7839
2023-04-26T07:03:21.033Z,90.4958
2023-04-26T07:04:22.047Z,89.7547
2023-04-26T07:05:22.911Z,90.0778
2023-04-26T07:06:23.677Z,89.5953
2023-04-26T07:07:24.355Z,89.5562
2023-04-26T07:08:25.100Z,88.8523
2023-04-26T07:09:25.804Z,88.9059
2023-04-26T07:10:26.535Z,88.3167
2023-04-26T07:11:27.270Z,88.0432
2023-04-26T07:12:27.960Z,88.4547
2023-04-26T07:13:28.658Z,88.4605
2023-04-26T07:14:29.343Z,87.9178
2023-04-26T07:15:30.041Z,88.1890
2023-04-26T07:16:30.803Z,88.6149
2023-04-26T07:17:31.600Z,89.4783
2023-04-26T07:18:32.323Z,89.1343
2023-04-26T07:19:33.093Z,88.5104
2023-04-26T07:20:33.871Z,88.7735
2023-04-26T07:21:34.570Z,89.9284
2023-04-26T07:22:35.296Z,89.8087
2023-04-26T07:23:36.090Z,90.2740
2023-04-26T07:24:36.774Z,89.8769
2023-04-26T07:25:37.488Z,88.8577
2023-04-26T07:26:38.208Z,88.5159
2023-04-26T07:27:38.967Z,88.6365
2023-04-26T07:28:39.688Z,88.4335
2023-04-26T07:29:40.435Z,88.3173
2023-04-26T07:30:41.145Z,88.7891
2023-04-26T07:31:41.817Z,87.9715
2023-04-26T07:32:42.659Z,87.2523
2023-04-26T07:33:43.505Z,86.6697
2023-04-26T07:34:44.251Z,87.1751
2023-04-26T07:35:44.988Z,86.1237
2023-04-26T07:36:45.705Z,85.6792
2023-04-26T07:37:46.412Z,86.8550
2023-04-26T07:38:47.179Z,86.1864
2023-04-26T07:39:47.837Z,86.8659
2023-04-26T07:40:48.567Z,87.0104
2023-04-26T07:41:49.238Z,87.0576
2023-04-26T07:42:49.975Z,86.7722
2023-04-26T07:43:50.882Z,86.2774
2023-04-26T07:44:51.973Z,85.3768
2023-04-26T07:45:52.727Z,84.8307
2023-04-26T07:46:53.416Z,84.9387
2023-04-26T07:47:54.781Z,85.8025
2023-04-26T07:48:55.884Z,86.0071
2023-04-26T07:49:56.603Z,85.6255
2023-04-26T07:50:57.327Z,85.7273
2023-04-26T07:51:58.023Z,85.9328
2023-04-26T07:52:58.769Z,85.2107
2023-04-26T07:53:59.440Z,86.7441
2023-04-26T07:55:00.161Z,86.7829
2023-04-26T07:56:00.882Z,85.9529
2023-04-26T07:57:01.636Z,85.0886
2023-04-26T07:58:02.314Z,85.1122
2023-04-26T07:59:03.053Z,85.4094
2023-04-26T08:00:03.744Z,85.1566
2023-04-26T08:01:04.443Z,84.4789
2023-04-26T08:02:05.199Z,84.2740
2023-04-26T08:03:06.108Z,84.0367
2023-04-26T08:04:07.435Z,83.6074
2023-04-26T08:05:08.445Z,82.9845
2023-04-26T08:06:09.233Z,83.7914
2023-04-26T08:07:09.968Z,84.9246
2023-04-26T08:08:10.616Z,84.7537
2023-04-26T08:09:12.499Z,84.7351
2023-04-26T08:10:13.331Z,84.5434
2023-04-26T08:11:14.082Z,84.4010
2023-04-26T08:12:14.830Z,84.7021
2023-04-26T08:13:15.509Z,85.0020
2023-04-26T08:14:16.399Z,85.3008
2023-04-26T08:15:17.103Z,85.1777
2023-04-26T08:16:17.830Z,84.9169
2023-04-26T08:17:18.568Z,83.2545
2023-04-26T08:18:19.292Z,82.3501
2023-04-26T08:19:20.069Z,82.1775
2023-04-26T08:20:20.769Z,82.5235
2023-04-26T08:21:21.510Z,82.5307
2023-04-26T08:22:22.254Z,82.7804
2023-04-26T08:23:22.983Z,82.0766
2023-04-26T08:24:23.884Z,82.0736
2023-04-26T08:25:24.768Z,83.0714
2023-04-26T08:26:25.494Z,82.8473
2023-04-26T08:27:26.236Z,82.8205
2023-04-26T08:28:26.925Z,83.2955
2023-04-26T08:29:27.684Z,83.5040
2023-04-26T08:30:28.411Z,83.3851
2023-04-26T08:31:29.256Z,83.5127
2023-04-26T08:32:30.066Z,83.6516
2023-04-26T08:33:30.762Z,83.5280
2023-04-26T08:34:31.505Z,83.1861
2023-04-26T08:35:32.271Z,83.2784
2023-04-26T08:36:32.962Z,83.4879
2023-04-26T08:37:33.660Z,83.5810
2023-04-26T08:38:34.426Z,83.7009
2023-04-26T08:39:35.160Z,82.5807
2023-04-26T08:40:35.885Z,82.2012
2023-04-26T08:41:36.595Z,82.2806
2023-04-26T08:42:38.002Z,82.2893
2023-04-26T08:43:38.976Z,82.4854
2023-04-26T08:44:39.674Z,82.2500
2023-04-26T08:45:40.495Z,82.2112
2023-04-26T08:46:41.226Z,82.2883
2023-04-26T08:47:42.022Z,81.7292
2023-04-26T08:48:42.727Z,81.8578
2023-04-26T08:49:43.443Z,81.8872
2023-04-26T08:50:44.109Z,81.9632
2023-04-26T08:51:44.855Z,81.7662
2023-04-26T08:52:45.632Z,82.1972
2023-04-26T08:53:46.298Z,81.6601
2023-04-26T08:54:47.036Z,81.2747
2023-04-26T08:55:47.724Z,81.2640
2023-04-26T08:56:48.415Z,81.6820
2023-04-26T08:57:49.105Z,81.5964
2023-04-26T08:58:49.790Z,81.5377
2023-04-26T08:59:50.524Z,81.8026
2023-04-26T09:00:51.383Z,81.4204
2023-04-26T09:01:52.119Z,81.9138
2023-04-26T09:02:53.197Z,81.7012
2023-04-26T09:03:54.585Z,81.8400
2023-04-26T09:04:55.973Z,81.5969
2023-04-26T09:05:56.930Z,81.4829
2023-04-26T09:06:57.652Z,81.3589
2023-04-26T09:07:58.344Z,81.4103
2023-04-26T09:08:59.036Z,80.7302
2023-04-26T09:09:59.840Z,80.6174
2023-04-26T09:11:00.531Z,80.0560
2023-04-26T09:12:01.230Z,79.8539
2023-04-26T09:13:01.957Z,79.3669
2023-04-26T09:14:02.662Z,79.7312
2023-04-26T09:15:03.372Z,79.5093
2023-04-26T09:16:05.267Z,79.0366
2023-04-26T09:17:06.323Z,78.3751
2023-04-26T09:18:07.043Z,77.7716
2023-04-26T09:19:07.769Z,77.2419
2023-04-26T09:20:08.608Z,77.4678
2023-04-26T09:21:09.305Z,76.9655
2023-04-26T09:22:10.026Z,76.5076
2023-04-26T09:23:10.736Z,76.7313
2023-04-26T09:24:11.404Z,77.3173
2023-04-26T09:25:12.103Z,77.1770
2023-04-26T09:26:12.791Z,76.5307
2023-04-26T09:27:13.509Z,77.0584
2023-04-26T09:28:14.182Z,76.2868
2023-04-26T09:29:14.970Z,76.9443
2023-04-26T09:30:15.665Z,77.5988
2023-04-26T09:31:16.399Z,78.6530
2023-04-26T09:32:17.079Z,78.3523
2023-04-26T09:33:17.897Z,76.5287
2023-04-26T09:34:18.568Z,75.8649
2023-04-26T09:35:19.278Z,75.0262
2023-04-26T09:36:19.946Z,73.8605
2023-04-26T09:37:20.627Z,73.1969
2023-04-26T09:38:21.364Z,74.5208
2023-04-26T09:39:22.031Z,74.6898
2023-04-26T09:40:22.788Z,74.7630
2023-04-26T09:41:23.518Z,75.4957
2023-04-26T09:42:24.192Z,75.2755
2023-04-26T09:43:24.826Z,75.4917
2023-04-26T09:44:25.469Z,74.5410
2023-04-26T09:45:26.119Z,72.6608
2023-04-26T09:46:26.843Z,73.4484
2023-04-26T09:47:27.474Z,73.6568
2023-04-26T09:48:28.113Z,73.5339
2023-04-26T09:49:28.766Z,74.1800
2023-04-26T09:50:29.459Z,73.5877
2023-04-26T09:51:30.145Z,73.9567
2023-04-26T09:52:30.792Z,74.1783
2023-04-26T09:53:31.434Z,74.5520
2023-04-26T09:54:32.046Z,74.2750
2023-04-26T09:55:35.468Z,74.0353
2023-04-26T09:56:33.819Z,73.6290
2023-04-26T09:57:34.472Z,73.3412
2023-04-26T09:58:35.093Z,73.6973
2023-04-26T09:59:35.725Z,74.3091
2023-04-26T10:00:36.386Z,74.0580
2023-04-26T10:01:37.088Z,74.2003
2023-04-26T10:02:37.808Z,74.9898
2023-04-26T10:03:38.798Z,74.6468
2023-04-26T10:04:39.788Z,73.8840
2023-04-26T10:05:40.455Z,74.0493
2023-04-26T10:06:41.147Z,74.0779
2023-04-26T10:07:41.875Z,72.8905
2023-04-26T10:08:42.570Z,72.1530
2023-04-26T10:09:43.208Z,71.9096
2023-04-26T10:10:43.929Z,71.4998
2023-04-26T10:11:44.576Z,72.1143
2023-04-26T10:12:45.264Z,74.2850
2023-04-26T10:13:45.991Z,73.8974
2023-04-26T10:14:46.694Z,72.8355
2023-04-26T10:15:47.406Z,72.2232
2023-04-26T10:16:48.112Z,72.0646
2023-04-26T10:17:50.239Z,72.1894
2023-04-26T10:18:50.185Z,72.2303
2023-04-26T10:19:50.939Z,72.3076
2023-04-26T10:20:51.609Z,72.6382
2023-04-26T10:21:52.289Z,72.3543
2023-04-26T10:22:52.963Z,70.7266
2023-04-26T10:23:53.700Z,70.8143
2023-04-26T10:24:54.391Z,70.5265
2023-04-26T10:25:55.082Z,70.5635
2023-04-26T10:26:55.810Z,69.6907
2023-04-26T10:27:56.525Z,68.5855
2023-04-26T10:29:02.098Z,68.0323
2023-04-26T10:29:58.330Z,68.6048
2023-04-26T10:30:58.996Z,70.1794
2023-04-26T10:31:59.653Z,70.7717
2023-04-26T10:33:00.331Z,68.3216
2023-04-26T10:34:00.948Z,66.8839
2023-04-26T10:35:01.621Z,66.0741
2023-04-26T10:36:02.260Z,65.7846
2023-04-26T10:37:02.995Z,65.4833
2023-04-26T10:38:03.638Z,64.4694
2023-04-26T10:39:04.261Z,64.7302
2023-04-26T10:40:04.863Z,64.3165
2023-04-26T10:41:05.545Z,64.8439
2023-04-26T10:42:06.171Z,64.0700
2023-04-26T10:43:06.806Z,62.8154
2023-04-26T10:44:07.421Z,61.9817
2023-04-26T10:45:08.054Z,61.4334
2023-04-26T10:46:08.695Z,61.8575
2023-04-26T10:47:09.284Z,62.3047
2023-04-26T10:48:09.964Z,64.1160
2023-04-26T10:49:10.589Z,64.7940
2023-04-26T10:50:11.215Z,64.6861
2023-04-26T10:51:11.958Z,62.7862
2023-04-26T10:52:12.554Z,61.3833
2023-04-26T10:53:13.198Z,61.2495
2023-04-26T10:54:13.836Z,61.0436
2023-04-26T10:55:14.469Z,61.7952
2023-04-26T10:56:15.083Z,62.0470
2023-04-26T10:57:15.716Z,61.9169
2023-04-26T10:58:16.323Z,61.1857
2023-04-26T10:59:36.125Z,60.9785
2023-04-26T11:00:18.001Z,60.1989
2023-04-26T11:01:18.751Z,58.8393
2023-04-26T11:02:19.408Z,57.4828
2023-04-26T11:03:20.104Z,58.5768
2023-04-26T11:04:20.897Z,57.9353
2023-04-26T11:05:23.557Z,56.8966
2023-04-26T11:06:22.670Z,56.8679
2023-04-26T11:07:23.291Z,56.7361
2023-04-26T11:08:23.934Z,54.4744
2023-04-26T11:09:24.552Z,53.4684
2023-04-26T11:10:25.219Z,53.7070
2023-04-26T11:11:25.905Z,54.6892
2023-04-26T11:12:26.586Z,58.8002
2023-04-26T11:13:27.211Z,60.0269
2023-04-26T11:14:27.872Z,58.7185
2023-04-26T11:15:28.506Z,57.6550
2023-04-26T11:16:29.302Z,57.8271
2023-04-26T11:17:30.002Z,57.7992
2023-04-26T11:18:30.629Z,56.1857
2023-04-26T11:19:31.256Z,53.1634
2023-04-26T11:20:31.830Z,52.6622
2023-04-26T11:21:32.444Z,52.4793
2023-04-26T11:22:33.023Z,52.4000
2023-04-26T11:23:33.849Z,51.3994
2023-04-26T11:24:34.448Z,51.2086
2023-04-26T11:25:35.041Z,50.5898
2023-04-26T11:26:35.652Z,50.6406
2023-04-26T11:27:36.163Z,51.6367
2023-04-26T11:28:36.737Z,51.0482
2023-04-26T11:29:37.331Z,52.4409
2023-04-26T11:30:38.506Z,52.7307
2023-04-26T11:31:39.460Z,51.7824
2023-04-26T11:32:40.120Z,51.8332
2023-04-26T11:33:40.699Z,51.7514
2023-04-26T11:34:41.297Z,52.5556
2023-04-26T11:35:41.869Z,50.2573
2023-04-26T11:36:42.473Z,50.9731
2023-04-26T11:37:43.051Z,50.8141
2023-04-26T11:38:43.694Z,49.6225
2023-04-26T11:39:44.318Z,49.1988
2023-04-26T11:40:44.867Z,47.8515
2023-04-26T11:41:45.436Z,48.0447
2023-04-26T11:42:46.029Z,49.0840
2023-04-26T11:43:46.634Z,50.7426
2023-04-26T11:44:47.879Z,50.5011
2023-04-26T11:45:48.608Z,51.2516
2023-04-26T11:46:49.291Z,51.2104
2023-04-26T11:47:49.899Z,52.5872
2023-04-26T11:48:50.425Z,52.3613
2023-04-26T11:49:51.070Z,51.5080
2023-04-26T11:50:51.614Z,50.9570
2023-04-26T11:51:52.218Z,50.7554
2023-04-26T11:52:52.773Z,49.3858
2023-04-26T11:53:53.318Z,50.0909
2023-04-26T11:54:53.869Z,49.3548
2023-04-26T11:55:54.459Z,48.5040
2023-04-26T11:56:55.050Z,47.9500
2023-04-26T11:57:55.865Z,49.4227
2023-04-26T11:58:56.834Z,49.2914
2023-04-26T11:59:57.639Z,49.1864
2023-04-26T12:00:58.213Z,49.8382
2023-04-26T12:01:58.936Z,49.1786
2023-04-26T12:02:59.715Z,48.2834
2023-04-26T12:04:00.792Z,48.0993
2023-04-26T12:05:01.822Z,47.6715
2023-04-26T12:06:02.545Z,48.8385
2023-04-26T12:07:03.113Z,49.3797
2023-04-26T12:08:03.681Z,49.5570
2023-04-26T12:09:04.258Z,51.6000
2023-04-26T12:10:04.880Z,51.3787
2023-04-26T12:11:05.497Z,50.4102
2023-04-26T12:12:06.092Z,48.9561
2023-04-26T12:13:06.695Z,48.1335
2023-04-26T12:14:07.377Z,48.7211